sensor_id;sensor_type;location;lat;lon;timestamp;pressure;altitude;pressure_sealevel;temperature;humidity
17936;BME280;9093;52.062;4.508;2022-10-16T00:00:40;101172.03;;;14.69;78.44
17936;BME280;9093;52.062;4.508;2022-10-16T00:03:21;101165.78;;;14.69;78.52
17936;BME280;9093;52.062;4.508;2022-10-16T00:06:02;101170.31;;;14.68;78.54
17936;BME280;9093;52.062;4.508;2022-10-16T00:08:43;101168.50;;;14.69;78.34
17936;BME280;9093;52.062;4.508;2022-10-16T00:11:26;101164.06;;;14.68;78.32
17936;BME280;9093;52.062;4.508;2022-10-16T00:14:10;101171.16;;;14.69;78.33
17936;BME280;9093;52.062;4.508;2022-10-16T00:16:51;101173.94;;;14.67;78.53
17936;BME280;9093;52.062;4.508;2022-10-16T00:19:31;101169.44;;;14.68;78.49
17936;BME280;9093;52.062;4.508;2022-10-16T00:22:11;101173.13;;;14.67;78.51
17936;BME280;9093;52.062;4.508;2022-10-16T00:24:52;101167.75;;;14.67;78.35
17936;BME280;9093;52.062;4.508;2022-10-16T00:27:33;101163.09;;;14.69;78.34
17936;BME280;9093;52.062;4.508;2022-10-16T00:30:13;101161.19;;;14.71;78.14
17936;BME280;9093;52.062;4.508;2022-10-16T00:32:53;101158.50;;;14.71;78.29
17936;BME280;9093;52.062;4.508;2022-10-16T00:35:34;101153.03;;;14.72;78.09
17936;BME280;9093;52.062;4.508;2022-10-16T00:38:14;101151.22;;;14.73;78.07
17936;BME280;9093;52.062;4.508;2022-10-16T00:40:55;101155.59;;;14.74;77.88
17936;BME280;9093;52.062;4.508;2022-10-16T00:43:44;101144.84;;;14.74;77.86
17936;BME280;9093;52.062;4.508;2022-10-16T00:46:37;101143.88;;;14.75;77.83
17936;BME280;9093;52.062;4.508;2022-10-16T00:49:20;101147.44;;;14.75;77.71
17936;BME280;9093;52.062;4.508;2022-10-16T00:52:00;101154.66;;;14.75;77.86
17936;BME280;9093;52.062;4.508;2022-10-16T00:54:41;101152.91;;;14.74;77.77
17936;BME280;9093;52.062;4.508;2022-10-16T00:57:21;101153.78;;;14.74;77.88
17936;BME280;9093;52.062;4.508;2022-10-16T01:00:05;101144.75;;;14.75;77.70
17936;BME280;9093;52.062;4.508;2022-10-16T01:02:52;101151.88;;;14.76;77.70
17936;BME280;9093;52.062;4.508;2022-10-16T01:05:44;101151.00;;;14.76;77.57
17936;BME280;9093;52.062;4.508;2022-10-16T01:09:02;101164.44;;;14.76;77.62
17936;BME280;9093;52.062;4.508;2022-10-16T01:11:56;101167.34;;;14.73;77.76
17936;BME280;9093;52.062;4.508;2022-10-16T01:14:48;101168.41;;;14.70;77.84
17936;BME280;9093;52.062;4.508;2022-10-16T01:17:39;101162.38;;;14.67;77.93
17936;BME280;9093;52.062;4.508;2022-10-16T01:20:33;101162.56;;;14.64;77.94
17936;BME280;9093;52.062;4.508;2022-10-16T01:31:59;101163.16;;;14.55;78.17
17936;BME280;9093;52.062;4.508;2022-10-16T01:34:52;101166.03;;;14.52;78.14
17936;BME280;9093;52.062;4.508;2022-10-16T01:37:40;101170.88;;;14.46;78.38
17936;BME280;9093;52.062;4.508;2022-10-16T01:40:24;101180.84;;;14.44;78.49
17936;BME280;9093;52.062;4.508;2022-10-16T01:43:12;101186.28;;;14.43;78.42
17936;BME280;9093;52.062;4.508;2022-10-16T01:45:54;101189.09;;;14.41;78.54
17936;BME280;9093;52.062;4.508;2022-10-16T01:48:35;101176.63;;;14.40;78.56
17936;BME280;9093;52.062;4.508;2022-10-16T01:51:17;101175.84;;;14.38;78.30
17936;BME280;9093;52.062;4.508;2022-10-16T01:54:00;101179.50;;;14.37;78.61
17936;BME280;9093;52.062;4.508;2022-10-16T01:56:42;101183.91;;;14.38;78.64
17936;BME280;9093;52.062;4.508;2022-10-16T01:59:25;101192.13;;;14.35;78.63
17936;BME280;9093;52.062;4.508;2022-10-16T02:02:06;101193.13;;;14.34;78.44
17936;BME280;9093;52.062;4.508;2022-10-16T02:05:01;101191.38;;;14.33;78.82
17936;BME280;9093;52.062;4.508;2022-10-16T02:07:44;101196.94;;;14.30;78.73
17936;BME280;9093;52.062;4.508;2022-10-16T02:10:27;101190.69;;;14.30;79.10
17936;BME280;9093;52.062;4.508;2022-10-16T02:13:36;101194.25;;;14.30;78.81
17936;BME280;9093;52.062;4.508;2022-10-16T02:16:17;101196.06;;;14.30;79.14
17936;BME280;9093;52.062;4.508;2022-10-16T02:19:04;101196.94;;;14.30;78.74
17936;BME280;9093;52.062;4.508;2022-10-16T02:22:08;101185.44;;;14.28;78.75
17936;BME280;9093;52.062;4.508;2022-10-16T02:30:42;101196.06;;;14.30;79.09
17936;BME280;9093;52.062;4.508;2022-10-16T02:33:25;101196.06;;;14.30;78.91
17936;BME280;9093;52.062;4.508;2022-10-16T02:36:07;101195.19;;;14.29;78.81
17936;BME280;9093;52.062;4.508;2022-10-16T02:38:48;101191.78;;;14.27;79.02
17936;BME280;9093;52.062;4.508;2022-10-16T02:41:28;101207.88;;;14.27;79.08
17936;BME280;9093;52.062;4.508;2022-10-16T02:44:08;101200.78;;;14.26;79.06
17936;BME280;9093;52.062;4.508;2022-10-16T02:46:48;101196.38;;;14.25;78.86
17936;BME280;9093;52.062;4.508;2022-10-16T02:49:29;101201.75;;;14.25;78.98
17936;BME280;9093;52.062;4.508;2022-10-16T02:52:09;101206.34;;;14.23;78.98
17936;BME280;9093;52.062;4.508;2022-10-16T02:54:49;101210.84;;;14.23;79.02
17936;BME280;9093;52.062;4.508;2022-10-16T02:57:30;101203.84;;;14.20;78.95
17936;BME280;9093;52.062;4.508;2022-10-16T03:00:14;101208.38;;;14.20;78.98
17936;BME280;9093;52.062;4.508;2022-10-16T03:02:58;101207.50;;;14.19;78.95
17936;BME280;9093;52.062;4.508;2022-10-16T03:05:38;101212.09;;;14.17;79.05
17936;BME280;9093;52.062;4.508;2022-10-16T03:08:18;101204.16;;;14.16;79.24
17936;BME280;9093;52.062;4.508;2022-10-16T03:11:03;101206.84;;;14.16;78.98
17936;BME280;9093;52.062;4.508;2022-10-16T03:13:43;101202.50;;;14.13;79.11
17936;BME280;9093;52.062;4.508;2022-10-16T03:16:24;101208.84;;;14.12;79.14
17936;BME280;9093;52.062;4.508;2022-10-16T03:19:04;101214.22;;;14.12;79.03
17936;BME280;9093;52.062;4.508;2022-10-16T03:21:45;101211.44;;;14.14;79.18
17936;BME280;9093;52.062;4.508;2022-10-16T03:24:25;101221.13;;;14.16;79.08
17936;BME280;9093;52.062;4.508;2022-10-16T03:27:05;101222.84;;;14.17;79.02
17936;BME280;9093;52.062;4.508;2022-10-16T03:29:46;101229.94;;;14.18;79.21
17936;BME280;9093;52.062;4.508;2022-10-16T03:32:26;101237.03;;;14.19;79.16
17936;BME280;9093;52.062;4.508;2022-10-16T03:35:08;101229.75;;;14.21;78.93
17936;BME280;9093;52.062;4.508;2022-10-16T03:37:49;101232.31;;;14.23;78.94
17936;BME280;9093;52.062;4.508;2022-10-16T03:40:29;101238.56;;;14.23;79.14
17936;BME280;9093;52.062;4.508;2022-10-16T03:43:12;101242.97;;;14.24;79.21
17936;BME280;9093;52.062;4.508;2022-10-16T03:45:52;101233.00;;;14.26;79.08
17936;BME280;9093;52.062;4.508;2022-10-16T03:48:33;101245.50;;;14.27;79.13
17936;BME280;9093;52.062;4.508;2022-10-16T03:51:13;101247.22;;;14.28;79.30
17936;BME280;9093;52.062;4.508;2022-10-16T03:53:53;101243.53;;;14.29;79.13
17936;BME280;9093;52.062;4.508;2022-10-16T03:56:34;101246.22;;;14.29;79.19
17936;BME280;9093;52.062;4.508;2022-10-16T03:59:14;101255.16;;;14.30;78.99
17936;BME280;9093;52.062;4.508;2022-10-16T04:01:54;101259.66;;;14.29;78.77
17936;BME280;9093;52.062;4.508;2022-10-16T04:04:35;101257.97;;;14.28;79.06
17936;BME280;9093;52.062;4.508;2022-10-16T04:07:15;101262.47;;;14.28;79.00
17936;BME280;9093;52.062;4.508;2022-10-16T04:09:55;101264.19;;;14.29;78.97
17936;BME280;9093;52.062;4.508;2022-10-16T04:12:37;101266.97;;;14.27;79.12
17936;BME280;9093;52.062;4.508;2022-10-16T04:15:17;101272.34;;;14.27;79.25
17936;BME280;9093;52.062;4.508;2022-10-16T04:17:57;101276.06;;;14.25;79.26
17936;BME280;9093;52.062;4.508;2022-10-16T04:20:38;101271.47;;;14.27;79.16
17936;BME280;9093;52.062;4.508;2022-10-16T04:23:18;101273.31;;;14.26;79.31
17936;BME280;9093;52.062;4.508;2022-10-16T04:25:59;101281.34;;;14.26;79.26
17936;BME280;9093;52.062;4.508;2022-10-16T04:28:39;101283.19;;;14.26;79.26
17936;BME280;9093;52.062;4.508;2022-10-16T04:31:20;101291.16;;;14.27;79.25
17936;BME280;9093;52.062;4.508;2022-10-16T04:34:01;101297.47;;;14.26;79.59
17936;BME280;9093;52.062;4.508;2022-10-16T04:36:41;101296.59;;;14.26;79.40
17936;BME280;9093;52.062;4.508;2022-10-16T04:39:21;101306.47;;;14.25;79.50
17936;BME280;9093;52.062;4.508;2022-10-16T04:42:02;101309.16;;;14.25;79.58
17936;BME280;9093;52.062;4.508;2022-10-16T04:44:42;101313.75;;;14.23;79.62
17936;BME280;9093;52.062;4.508;2022-10-16T04:47:23;101322.81;;;14.22;79.58
17936;BME280;9093;52.062;4.508;2022-10-16T04:50:03;101328.19;;;14.22;79.48
17936;BME280;9093;52.062;4.508;2022-10-16T04:52:43;101336.13;;;14.24;79.62
17936;BME280;9093;52.062;4.508;2022-10-16T04:55:24;101334.38;;;14.23;79.63
17936;BME280;9093;52.062;4.508;2022-10-16T04:58:04;101337.06;;;14.23;79.62
17936;BME280;9093;52.062;4.508;2022-10-16T05:00:45;101342.34;;;14.24;79.61
17936;BME280;9093;52.062;4.508;2022-10-16T05:03:26;101349.47;;;14.25;79.59
17936;BME280;9093;52.062;4.508;2022-10-16T05:06:07;101353.09;;;14.24;79.61
17936;BME280;9093;52.062;4.508;2022-10-16T05:08:47;101346.19;;;14.20;79.79
17936;BME280;9093;52.062;4.508;2022-10-16T05:11:27;101350.19;;;14.13;79.82
17936;BME280;9093;52.062;4.508;2022-10-16T05:14:08;101346.94;;;14.08;79.88
17936;BME280;9093;52.062;4.508;2022-10-16T05:16:48;101362.34;;;14.04;80.04
17936;BME280;9093;52.062;4.508;2022-10-16T05:19:29;101361.69;;;14.01;80.05
17936;BME280;9093;52.062;4.508;2022-10-16T05:22:09;101373.75;;;13.94;80.46
17936;BME280;9093;52.062;4.508;2022-10-16T05:24:49;101372.38;;;13.87;80.56
17936;BME280;9093;52.062;4.508;2022-10-16T05:27:29;101375.63;;;13.78;80.76
17936;BME280;9093;52.062;4.508;2022-10-16T05:30:10;101386.59;;;13.73;80.86
17936;BME280;9093;52.062;4.508;2022-10-16T05:32:51;101391.22;;;13.71;81.02
17936;BME280;9093;52.062;4.508;2022-10-16T05:35:31;101385.13;;;13.67;81.22
17936;BME280;9093;52.062;4.508;2022-10-16T05:38:12;101395.88;;;13.67;81.14
17936;BME280;9093;52.062;4.508;2022-10-16T05:40:55;101381.00;;;13.62;81.23
17936;BME280;9093;52.062;4.508;2022-10-16T05:43:36;101396.22;;;13.61;81.41
17936;BME280;9093;52.062;4.508;2022-10-16T05:46:16;101390.84;;;13.61;81.23
17936;BME280;9093;52.062;4.508;2022-10-16T05:48:57;101394.50;;;13.60;81.44
17936;BME280;9093;52.062;4.508;2022-10-16T05:51:37;101393.53;;;13.61;81.63
17936;BME280;9093;52.062;4.508;2022-10-16T05:54:18;101397.97;;;13.62;81.54
17936;BME280;9093;52.062;4.508;2022-10-16T05:56:58;101394.31;;;13.63;81.55
17936;BME280;9093;52.062;4.508;2022-10-16T05:59:39;101400.63;;;13.62;81.54
17936;BME280;9093;52.062;4.508;2022-10-16T06:02:19;101399.84;;;13.60;81.80
17936;BME280;9093;52.062;4.508;2022-10-16T06:04:59;101397.97;;;13.62;81.71
17936;BME280;9093;52.062;4.508;2022-10-16T06:07:40;101398.13;;;13.59;81.67
17936;BME280;9093;52.062;4.508;2022-10-16T06:10:20;101408.03;;;13.59;81.65
17936;BME280;9093;52.062;4.508;2022-10-16T06:13:00;101414.22;;;13.59;81.76
17936;BME280;9093;52.062;4.508;2022-10-16T06:15:42;101412.31;;;13.61;81.49
17936;BME280;9093;52.062;4.508;2022-10-16T06:18:22;101405.22;;;13.60;81.81
17936;BME280;9093;52.062;4.508;2022-10-16T06:21:08;101415.00;;;13.61;81.97
17936;BME280;9093;52.062;4.508;2022-10-16T06:23:49;101411.53;;;13.59;81.69
17936;BME280;9093;52.062;4.508;2022-10-16T06:26:30;101422.25;;;13.59;81.63
17936;BME280;9093;52.062;4.508;2022-10-16T06:29:10;101413.47;;;13.57;81.85
17936;BME280;9093;52.062;4.508;2022-10-16T06:31:51;101416.16;;;13.57;81.94
17936;BME280;9093;52.062;4.508;2022-10-16T06:34:31;101424.94;;;13.59;82.03
17936;BME280;9093;52.062;4.508;2022-10-16T06:37:11;101424.94;;;13.59;81.93
17936;BME280;9093;52.062;4.508;2022-10-16T06:39:51;101439.22;;;13.60;81.96
17936;BME280;9093;52.062;4.508;2022-10-16T06:42:34;101442.78;;;13.60;82.04
17936;BME280;9093;52.062;4.508;2022-10-16T06:45:15;101444.53;;;13.61;81.84
17936;BME280;9093;52.062;4.508;2022-10-16T06:47:55;101446.41;;;13.59;82.00
17936;BME280;9093;52.062;4.508;2022-10-16T06:50:35;101458.13;;;13.58;82.25
17936;BME280;9093;52.062;4.508;2022-10-16T06:53:15;101455.25;;;13.61;82.00
17936;BME280;9093;52.062;4.508;2022-10-16T06:55:56;101466.94;;;13.60;82.13
17936;BME280;9093;52.062;4.508;2022-10-16T06:58:37;101464.44;;;13.57;82.02
17936;BME280;9093;52.062;4.508;2022-10-16T07:01:20;101473.34;;;13.58;82.18
17936;BME280;9093;52.062;4.508;2022-10-16T07:04:01;101477.94;;;13.56;82.25
17936;BME280;9093;52.062;4.508;2022-10-16T07:06:42;101485.91;;;13.57;82.31
17936;BME280;9093;52.062;4.508;2022-10-16T07:09:22;101484.16;;;13.56;82.09
17936;BME280;9093;52.062;4.508;2022-10-16T07:12:02;101494.91;;;13.56;82.16
17936;BME280;9093;52.062;4.508;2022-10-16T07:14:43;101501.13;;;13.57;82.18
17936;BME280;9093;52.062;4.508;2022-10-16T07:17:23;101509.09;;;13.58;81.87
17936;BME280;9093;52.062;4.508;2022-10-16T07:20:04;101511.00;;;13.56;81.83
17936;BME280;9093;52.062;4.508;2022-10-16T07:22:44;101518.09;;;13.57;81.87
17936;BME280;9093;52.062;4.508;2022-10-16T07:25:28;101526.06;;;13.59;81.93
17936;BME280;9093;52.062;4.508;2022-10-16T07:28:08;101525.09;;;13.60;81.89
17936;BME280;9093;52.062;4.508;2022-10-16T07:30:49;101535.75;;;13.61;81.97
17936;BME280;9093;52.062;4.508;2022-10-16T07:33:29;101544.59;;;13.63;81.84
17936;BME280;9093;52.062;4.508;2022-10-16T07:36:10;101548.06;;;13.65;81.87
17936;BME280;9093;52.062;4.508;2022-10-16T07:38:51;101548.81;;;13.67;81.88
17936;BME280;9093;52.062;4.508;2022-10-16T07:41:32;101562.09;;;13.71;81.89
17936;BME280;9093;52.062;4.508;2022-10-16T07:44:16;101559.28;;;13.72;81.79
17936;BME280;9093;52.062;4.508;2022-10-16T07:46:56;101563.63;;;13.75;81.94
17936;BME280;9093;52.062;4.508;2022-10-16T07:49:37;101575.16;;;13.77;81.81
17936;BME280;9093;52.062;4.508;2022-10-16T07:52:18;101569.72;;;13.78;81.46
17936;BME280;9093;52.062;4.508;2022-10-16T07:54:58;101570.41;;;13.82;81.68
17936;BME280;9093;52.062;4.508;2022-10-16T07:57:38;101583.81;;;13.82;81.71
17936;BME280;9093;52.062;4.508;2022-10-16T08:00:18;101597.06;;;13.85;81.67
17936;BME280;9093;52.062;4.508;2022-10-16T08:02:59;101599.66;;;13.86;81.68
17936;BME280;9093;52.062;4.508;2022-10-16T08:05:40;101609.38;;;13.89;81.60
17936;BME280;9093;52.062;4.508;2022-10-16T08:08:20;101610.84;;;13.94;81.70
17936;BME280;9093;52.062;4.508;2022-10-16T08:11:00;101615.09;;;13.98;81.57
17936;BME280;9093;52.062;4.508;2022-10-16T08:13:43;101616.69;;;14.02;81.89
17936;BME280;9093;52.062;4.508;2022-10-16T08:16:24;101606.81;;;14.03;81.45
17936;BME280;9093;52.062;4.508;2022-10-16T08:19:04;101629.84;;;14.07;81.62
17936;BME280;9093;52.062;4.508;2022-10-16T08:21:47;101627.94;;;14.09;81.47
17936;BME280;9093;52.062;4.508;2022-10-16T08:24:27;101626.00;;;14.11;81.58
17936;BME280;9093;52.062;4.508;2022-10-16T08:27:10;101633.91;;;14.14;81.58
17936;BME280;9093;52.062;4.508;2022-10-16T08:29:51;101632.78;;;14.18;81.71
17936;BME280;9093;52.062;4.508;2022-10-16T08:32:31;101639.88;;;14.19;81.44
17936;BME280;9093;52.062;4.508;2022-10-16T08:35:13;101632.63;;;14.21;81.52
17936;BME280;9093;52.062;4.508;2022-10-16T08:37:53;101646.81;;;14.23;81.65
17936;BME280;9093;52.062;4.508;2022-10-16T08:40:36;101655.66;;;14.25;81.64
17936;BME280;9093;52.062;4.508;2022-10-16T08:46:19;101665.91;;;14.34;81.50
17936;BME280;9093;52.062;4.508;2022-10-16T08:49:03;101667.53;;;14.37;81.44
17936;BME280;9093;52.062;4.508;2022-10-16T08:51:43;101669.22;;;14.39;81.58
17936;BME280;9093;52.062;4.508;2022-10-16T08:54:37;101673.53;;;14.42;81.51
17936;BME280;9093;52.062;4.508;2022-10-16T08:57:24;101674.25;;;14.45;81.47
17936;BME280;9093;52.062;4.508;2022-10-16T09:00:12;101682.03;;;14.50;81.56
17936;BME280;9093;52.062;4.508;2022-10-16T09:03:07;101690.69;;;14.55;81.58
17936;BME280;9093;52.062;4.508;2022-10-16T09:06:04;101701.97;;;14.62;81.43
17936;BME280;9093;52.062;4.508;2022-10-16T09:08:53;101698.94;;;14.68;81.13
17936;BME280;9093;52.062;4.508;2022-10-16T09:11:53;101710.47;;;14.70;81.13
17936;BME280;9093;52.062;4.508;2022-10-16T09:21:01;101706.13;;;14.83;80.89
17936;BME280;9093;52.062;4.508;2022-10-16T09:23:45;101711.50;;;14.83;80.71
17936;BME280;9093;52.062;4.508;2022-10-16T09:26:27;101709.69;;;14.83;81.00
17936;BME280;9093;52.062;4.508;2022-10-16T09:29:13;101715.72;;;14.87;80.88
17936;BME280;9093;52.062;4.508;2022-10-16T09:31:57;101711.75;;;14.94;80.65
17936;BME280;9093;52.062;4.508;2022-10-16T09:34:48;101714.00;;;15.02;80.42
17936;BME280;9093;52.062;4.508;2022-10-16T09:37:30;101708.69;;;15.00;80.36
17936;BME280;9093;52.062;4.508;2022-10-16T09:40:35;101717.53;;;15.02;80.68
17936;BME280;9093;52.062;4.508;2022-10-16T09:43:23;101713.72;;;15.06;80.57
17936;BME280;9093;52.062;4.508;2022-10-16T09:46:06;101716.16;;;15.11;80.49
17936;BME280;9093;52.062;4.508;2022-10-16T09:48:49;101723.16;;;15.13;80.55
17936;BME280;9093;52.062;4.508;2022-10-16T09:51:31;101720.31;;;15.16;80.73
17936;BME280;9093;52.062;4.508;2022-10-16T09:54:15;101716.53;;;15.19;80.35
17936;BME280;9093;52.062;4.508;2022-10-16T09:57:05;101720.09;;;15.19;80.43
17936;BME280;9093;52.062;4.508;2022-10-16T09:59:50;101717.34;;;15.21;80.47
17936;BME280;9093;52.062;4.508;2022-10-16T10:02:35;101719.06;;;15.22;80.50
17936;BME280;9093;52.062;4.508;2022-10-16T10:05:25;101720.81;;;15.23;80.50
17936;BME280;9093;52.062;4.508;2022-10-16T10:08:06;101733.97;;;15.27;80.28
17936;BME280;9093;52.062;4.508;2022-10-16T10:10:52;101728.22;;;15.34;79.92
17936;BME280;9093;52.062;4.508;2022-10-16T10:13:34;101725.25;;;15.38;79.81
17936;BME280;9093;52.062;4.508;2022-10-16T10:16:23;101727.06;;;15.38;79.82
17936;BME280;9093;52.062;4.508;2022-10-16T10:19:03;101736.88;;;15.39;79.73
17936;BME280;9093;52.062;4.508;2022-10-16T10:21:44;101742.97;;;15.42;79.53
17936;BME280;9093;52.062;4.508;2022-10-16T10:24:27;101744.69;;;15.43;79.49
17936;BME280;9093;52.062;4.508;2022-10-16T10:27:16;101758.06;;;15.45;79.52
17936;BME280;9093;52.062;4.508;2022-10-16T10:30:07;101756.50;;;15.41;79.64
17936;BME280;9093;52.062;4.508;2022-10-16T10:36:16;101769.75;;;15.44;79.30
17936;BME280;9093;52.062;4.508;2022-10-16T10:39:17;101766.13;;;15.45;78.84
17936;BME280;9093;52.062;4.508;2022-10-16T10:48:03;101774.69;;;15.51;78.01
17936;BME280;9093;52.062;4.508;2022-10-16T10:50:53;101779.22;;;15.51;77.89
17936;BME280;9093;52.062;4.508;2022-10-16T10:53:44;101780.38;;;15.47;78.00
17936;BME280;9093;52.062;4.508;2022-10-16T11:05:45;101790.19;;;15.48;78.15
17936;BME280;9093;52.062;4.508;2022-10-16T11:08:41;101795.22;;;15.54;77.99
17936;BME280;9093;52.062;4.508;2022-10-16T11:11:29;101797.72;;;15.57;77.79
17936;BME280;9093;52.062;4.508;2022-10-16T11:17:16;101807.59;;;15.72;77.27
17936;BME280;9093;52.062;4.508;2022-10-16T11:20:16;101809.03;;;15.78;77.12
17936;BME280;9093;52.062;4.508;2022-10-16T11:26:03;101822.44;;;15.79;76.44
17936;BME280;9093;52.062;4.508;2022-10-16T11:28:54;101823.09;;;15.83;76.30
17936;BME280;9093;52.062;4.508;2022-10-16T11:31:42;101816.66;;;15.85;76.20
17936;BME280;9093;52.062;4.508;2022-10-16T11:37:14;101819.94;;;15.90;75.38
17936;BME280;9093;52.062;4.508;2022-10-16T11:40:05;101819.06;;;15.90;75.37
17936;BME280;9093;52.062;4.508;2022-10-16T11:42:59;101823.31;;;15.94;75.17
17936;BME280;9093;52.062;4.508;2022-10-16T11:45:45;101823.50;;;15.91;75.00
17936;BME280;9093;52.062;4.508;2022-10-16T11:48:45;101825.41;;;15.89;75.13
17936;BME280;9093;52.062;4.508;2022-10-16T11:51:43;101830.13;;;15.85;75.08
17936;BME280;9093;52.062;4.508;2022-10-16T11:54:52;101825.69;;;15.84;74.80
17936;BME280;9093;52.062;4.508;2022-10-16T11:57:57;101824.75;;;15.85;74.89
17936;BME280;9093;52.062;4.508;2022-10-16T12:00:50;101836.28;;;15.87;74.34
17936;BME280;9093;52.062;4.508;2022-10-16T12:04:02;101838.50;;;15.95;74.09
17936;BME280;9093;52.062;4.508;2022-10-16T12:06:51;101840.16;;;15.97;73.54
17936;BME280;9093;52.062;4.508;2022-10-16T12:09:37;101844.59;;;15.98;73.65
17936;BME280;9093;52.062;4.508;2022-10-16T12:12:46;101846.13;;;16.02;73.44
17936;BME280;9093;52.062;4.508;2022-10-16T12:15:28;101845.25;;;16.02;73.41
17936;BME280;9093;52.062;4.508;2022-10-16T12:18:24;101840.75;;;16.02;73.10
17936;BME280;9093;52.062;4.508;2022-10-16T12:21:05;101848.03;;;16.00;73.27
17936;BME280;9093;52.062;4.508;2022-10-16T12:23:51;101851.53;;;16.02;72.12
17936;BME280;9093;52.062;4.508;2022-10-16T12:26:37;101850.56;;;16.03;72.00
17936;BME280;9093;52.062;4.508;2022-10-16T12:29:38;101851.34;;;16.05;72.07
17936;BME280;9093;52.062;4.508;2022-10-16T12:32:29;101858.81;;;16.00;71.77
17936;BME280;9093;52.062;4.508;2022-10-16T12:35:20;101853.44;;;16.00;71.89
17936;BME280;9093;52.062;4.508;2022-10-16T12:38:22;101864.41;;;15.97;71.63
17936;BME280;9093;52.062;4.508;2022-10-16T12:41:07;101864.41;;;15.97;70.83
17936;BME280;9093;52.062;4.508;2022-10-16T12:43:52;101856.50;;;15.94;70.91
17936;BME280;9093;52.062;4.508;2022-10-16T12:51:53;101860.56;;;16.01;70.96
17936;BME280;9093;52.062;4.508;2022-10-16T12:54:37;101855.59;;;16.09;70.71
17936;BME280;9093;52.062;4.508;2022-10-16T12:57:37;101856.25;;;16.13;70.66
17936;BME280;9093;52.062;4.508;2022-10-16T13:00:31;101860.38;;;16.19;70.37
17936;BME280;9093;52.062;4.508;2022-10-16T13:06:33;101868.47;;;16.19;70.82
17936;BME280;9093;52.062;4.508;2022-10-16T13:09:34;101866.56;;;16.21;70.98
17936;BME280;9093;52.062;4.508;2022-10-16T13:21:54;101888.13;;;16.21;71.71
17936;BME280;9093;52.062;4.508;2022-10-16T13:28:02;101891.41;;;16.26;72.08
17936;BME280;9093;52.062;4.508;2022-10-16T13:30:45;101887.75;;;16.27;71.78
17936;BME280;9093;52.062;4.508;2022-10-16T13:33:39;101892.09;;;16.29;71.81
17936;BME280;9093;52.062;4.508;2022-10-16T13:39:11;101901.44;;;16.38;71.20
17936;BME280;9093;52.062;4.508;2022-10-16T13:45:03;101904.72;;;16.43;70.76
17936;BME280;9093;52.062;4.508;2022-10-16T13:47:43;101901.91;;;16.44;70.65
17936;BME280;9093;52.062;4.508;2022-10-16T13:50:23;101913.41;;;16.48;70.60
17936;BME280;9093;52.062;4.508;2022-10-16T13:53:05;101896.34;;;16.47;70.56
17936;BME280;9093;52.062;4.508;2022-10-16T13:55:46;101898.97;;;16.49;70.83
17936;BME280;9093;52.062;4.508;2022-10-16T13:58:27;101903.56;;;16.47;70.88
17936;BME280;9093;52.062;4.508;2022-10-16T14:01:18;101901.03;;;16.44;70.77
17936;BME280;9093;52.062;4.508;2022-10-16T14:04:11;101885.66;;;16.46;71.08
17936;BME280;9093;52.062;4.508;2022-10-16T14:06:53;101880.34;;;16.44;70.95
17936;BME280;9093;52.062;4.508;2022-10-16T14:09:33;101883.16;;;16.43;71.15
17936;BME280;9093;52.062;4.508;2022-10-16T14:12:15;101886.81;;;16.42;71.20
17936;BME280;9093;52.062;4.508;2022-10-16T14:14:57;101883.34;;;16.40;71.44
17936;BME280;9093;52.062;4.508;2022-10-16T14:17:43;101886.13;;;16.38;71.51
17936;BME280;9093;52.062;4.508;2022-10-16T14:20:30;101887.94;;;16.38;71.41
17936;BME280;9093;52.062;4.508;2022-10-16T14:23:22;101894.13;;;16.40;71.48
17936;BME280;9093;52.062;4.508;2022-10-16T14:29:11;101890.28;;;16.44;71.01
17936;BME280;9093;52.062;4.508;2022-10-16T14:32:06;101892.31;;;16.40;71.37
17936;BME280;9093;52.062;4.508;2022-10-16T14:34:57;101899.72;;;16.37;71.61
17936;BME280;9093;52.062;4.508;2022-10-16T14:37:37;101893.84;;;16.30;71.82
17936;BME280;9093;52.062;4.508;2022-10-16T14:40:18;101890.34;;;16.28;72.34
17936;BME280;9093;52.062;4.508;2022-10-16T14:42:59;101885.84;;;16.29;72.01
17936;BME280;9093;52.062;4.508;2022-10-16T14:45:40;101883.94;;;16.31;72.05
17936;BME280;9093;52.062;4.508;2022-10-16T14:48:23;101893.91;;;16.29;72.29
17936;BME280;9093;52.062;4.508;2022-10-16T14:51:07;101886.88;;;16.26;72.38
17936;BME280;9093;52.062;4.508;2022-10-16T14:53:49;101887.94;;;16.24;72.67
17936;BME280;9093;52.062;4.508;2022-10-16T14:56:44;101889.94;;;16.20;72.93
17936;BME280;9093;52.062;4.508;2022-10-16T14:59:29;101894.66;;;16.17;73.04
17936;BME280;9093;52.062;4.508;2022-10-16T15:05:19;101881.38;;;16.14;73.53
17936;BME280;9093;52.062;4.508;2022-10-16T15:08:00;101894.09;;;16.12;73.73
17936;BME280;9093;52.062;4.508;2022-10-16T15:10:43;101886.09;;;16.10;73.70
17936;BME280;9093;52.062;4.508;2022-10-16T15:13:23;101888.88;;;16.08;73.66
17936;BME280;9093;52.062;4.508;2022-10-16T15:16:04;101890.91;;;16.05;73.82
17936;BME280;9093;52.062;4.508;2022-10-16T15:18:44;101885.59;;;16.03;74.08
17936;BME280;9093;52.062;4.508;2022-10-16T15:21:28;101879.41;;;16.01;74.02
17936;BME280;9093;52.062;4.508;2022-10-16T15:24:12;101878.66;;;15.99;74.14
17936;BME280;9093;52.062;4.508;2022-10-16T15:26:53;101884.03;;;15.99;74.32
17936;BME280;9093;52.062;4.508;2022-10-16T15:29:36;101880.56;;;15.97;74.54
17936;BME280;9093;52.062;4.508;2022-10-16T15:32:16;101880.66;;;15.96;74.15
17936;BME280;9093;52.062;4.508;2022-10-16T15:34:56;101879.13;;;15.92;74.40
17936;BME280;9093;52.062;4.508;2022-10-16T15:37:36;101890.91;;;15.89;74.54
17936;BME280;9093;52.062;4.508;2022-10-16T15:40:18;101890.13;;;15.87;74.67
17936;BME280;9093;52.062;4.508;2022-10-16T15:42:59;101888.44;;;15.86;74.77
17936;BME280;9093;52.062;4.508;2022-10-16T15:45:39;101893.09;;;15.83;74.98
17936;BME280;9093;52.062;4.508;2022-10-16T15:48:19;101906.66;;;15.81;75.17
17936;BME280;9093;52.062;4.508;2022-10-16T15:51:00;101896.94;;;15.79;75.20
17936;BME280;9093;52.062;4.508;2022-10-16T15:53:44;101885.47;;;15.75;75.31